createdAt,value
2023-01-04T00:04:54.648Z,10.63
2023-01-04T00:10:16.532Z,9.50
2023-01-04T00:15:38.459Z,10.90
2023-01-04T00:21:12.555Z,13.10
2023-01-04T00:26:34.591Z,11.63
2023-01-04T00:31:56.435Z,10.95
2023-01-04T00:37:18.300Z,10.23
2023-01-04T00:42:40.161Z,12.77
2023-01-04T00:48:02.040Z,11.18
2023-01-04T00:53:23.908Z,12.57
2023-01-04T00:58:45.740Z,11.75
2023-01-04T01:04:08.165Z,11.05
2023-01-04T01:09:30.110Z,15.75
2023-01-04T01:14:54.797Z,15.02
2023-01-04T01:20:20.529Z,11.52
2023-01-04T01:25:42.851Z,12.85
2023-01-04T01:31:16.993Z,12.60
2023-01-04T01:36:38.893Z,14.40
2023-01-04T01:42:00.729Z,15.05
2023-01-04T01:47:26.589Z,13.18
2023-01-04T01:52:50.046Z,17.03
2023-01-04T01:58:17.205Z,12.30
2023-01-04T02:03:41.730Z,14.80
2023-01-04T02:09:03.936Z,14.65
2023-01-04T02:14:26.331Z,12.75
2023-01-04T02:20:18.509Z,13.10
2023-01-04T02:25:58.626Z,14.52
2023-01-04T02:31:39.724Z,13.15
2023-01-04T02:37:18.918Z,17.73
2023-01-04T02:43:16.235Z,16.08
2023-01-04T02:48:40.092Z,15.98
2023-01-04T02:54:13.721Z,14.80
2023-01-04T02:59:55.726Z,16.42
2023-01-04T03:05:26.481Z,20.10
2023-01-04T03:11:01.744Z,19.17
2023-01-04T03:16:25.575Z,20.33
2023-01-04T03:21:47.539Z,18.33
2023-01-04T03:27:09.742Z,17.42
2023-01-04T03:32:48.270Z,22.30
2023-01-04T03:43:41.071Z,18.80
2023-01-04T03:49:07.734Z,15.38
2023-01-04T03:54:38.749Z,19.35
2023-01-04T04:00:14.537Z,17.98
2023-01-04T04:05:40.725Z,22.63
2023-01-04T04:11:03.541Z,18.60
2023-01-04T04:16:26.731Z,18.63
2023-01-04T04:21:48.583Z,19.92
2023-01-04T04:27:10.481Z,20.85
2023-01-04T04:32:32.334Z,19.95
2023-01-04T04:37:54.216Z,17.98
2023-01-04T04:43:16.090Z,20.75
2023-01-04T04:48:37.930Z,21.15
2023-01-04T04:53:59.890Z,21.95
2023-01-04T04:59:21.761Z,22.75
2023-01-04T05:04:43.583Z,23.40
2023-01-04T05:10:05.808Z,21.77
2023-01-04T05:15:39.794Z,28.48
2023-01-04T05:21:01.830Z,27.58
2023-01-04T05:26:23.670Z,26.63
2023-01-04T05:31:45.597Z,25.38
2023-01-04T05:37:07.431Z,26.40
2023-01-04T05:42:29.259Z,20.67
2023-01-04T05:47:52.742Z,25.08
2023-01-04T05:53:16.117Z,21.25
2023-01-04T05:58:37.963Z,28.83
2023-01-04T06:03:59.822Z,28.70
2023-01-04T06:09:21.717Z,22.40
2023-01-04T06:14:43.550Z,24.92
2023-01-04T06:20:09.366Z,33.45
2023-01-04T06:25:31.243Z,34.13
2023-01-04T06:30:53.107Z,29.30
2023-01-04T06:36:20.059Z,29.75
2023-01-04T06:41:42.342Z,29.13
2023-01-04T06:47:04.213Z,29.95
2023-01-04T06:52:26.204Z,24.05
2023-01-04T06:57:48.060Z,29.17
2023-01-04T07:03:14.203Z,29.10
2023-01-04T07:08:37.464Z,28.00
2023-01-04T07:13:59.287Z,22.33
2023-01-04T07:19:21.263Z,25.08
2023-01-04T07:24:43.087Z,25.38
2023-01-04T07:30:05.417Z,28.75
2023-01-04T07:35:27.366Z,28.77
2023-01-04T07:40:56.219Z,28.90
2023-01-04T07:46:18.895Z,27.40
2023-01-04T07:51:40.865Z,26.63
2023-01-04T07:57:02.686Z,39.95
2023-01-04T08:02:24.623Z,37.33
2023-01-04T08:07:46.580Z,35.17
2023-01-04T08:13:08.431Z,30.63
2023-01-04T08:18:30.280Z,29.48
2023-01-04T08:23:53.745Z,22.30
2023-01-04T08:29:15.662Z,25.13
2023-01-04T08:34:37.537Z,27.45
2023-01-04T08:39:59.357Z,23.88
2023-01-04T08:45:21.200Z,22.08
2023-01-04T08:50:43.066Z,27.58
2023-01-04T08:56:05.243Z,27.73
2023-01-04T09:01:27.682Z,23.35
2023-01-04T09:06:49.848Z,28.83
2023-01-04T09:12:11.651Z,25.83
2023-01-04T09:17:33.458Z,25.52
2023-01-04T09:22:57.587Z,26.92
2023-01-04T09:28:19.441Z,27.38
2023-01-04T09:34:12.629Z,28.25
2023-01-04T09:39:24.422Z,28.10
2023-01-04T09:50:52.132Z,27.38
2023-01-04T09:56:23.901Z,25.00
2023-01-04T10:01:52.502Z,25.90
2023-01-04T10:07:31.345Z,22.83
2023-01-04T10:13:34.340Z,23.08
2023-01-04T10:19:07.986Z,22.80
2023-01-04T10:25:06.993Z,23.13
2023-01-04T10:31:40.171Z,22.30
2023-01-04T10:36:57.786Z,22.55
2023-01-04T10:42:36.928Z,22.80
2023-01-04T10:48:07.209Z,23.60
2023-01-04T10:53:54.077Z,30.13
2023-01-04T10:59:33.141Z,22.17
2023-01-04T11:05:04.279Z,22.15
2023-01-04T11:11:05.886Z,22.92
2023-01-04T11:16:29.724Z,22.20
2023-01-04T11:21:58.549Z,26.85
2023-01-04T11:27:27.303Z,22.42
2023-01-04T11:32:54.884Z,21.35
2023-01-04T11:38:22.304Z,24.00
2023-01-04T11:44:05.606Z,26.17
2023-01-04T11:49:34.420Z,26.63
2023-01-04T11:54:56.300Z,29.70
2023-01-04T12:00:18.529Z,26.75
2023-01-04T12:05:40.940Z,23.42
2023-01-04T12:11:06.053Z,26.65
2023-01-04T12:16:47.690Z,26.65
2023-01-04T12:22:18.669Z,30.13
2023-01-04T12:27:47.873Z,24.83
2023-01-04T12:33:31.471Z,27.02
2023-01-04T12:39:02.236Z,26.95
2023-01-04T12:44:36.320Z,26.60
2023-01-04T12:49:58.120Z,23.33
2023-01-04T12:55:27.593Z,21.20
2023-01-04T13:00:52.122Z,25.25
2023-01-04T13:06:14.100Z,23.08
2023-01-04T13:11:48.237Z,26.10
2023-01-04T13:17:21.940Z,19.38
2023-01-04T13:22:53.367Z,24.88
2023-01-04T13:28:19.334Z,24.55
2023-01-04T13:33:46.527Z,23.67
2023-01-04T13:39:08.414Z,21.35
2023-01-04T13:45:18.555Z,18.65
2023-01-04T13:50:41.614Z,20.77
2023-01-04T13:56:03.970Z,20.45
2023-01-04T14:01:35.494Z,20.55
2023-01-04T14:07:01.182Z,19.88
2023-01-04T14:12:29.074Z,18.57
2023-01-04T14:17:56.035Z,18.30
2023-01-04T14:23:36.367Z,19.67
2023-01-04T14:28:58.292Z,19.55
2023-01-04T14:34:20.212Z,17.33
2023-01-04T14:39:42.107Z,19.77
2023-01-04T14:45:12.587Z,18.40
2023-01-04T14:50:34.400Z,17.45
2023-01-04T14:55:56.668Z,19.25
2023-01-04T15:01:18.629Z,18.67
2023-01-04T15:06:48.987Z,20.20
2023-01-04T15:12:10.752Z,20.08
2023-01-04T15:17:32.653Z,19.70
2023-01-04T15:22:54.538Z,18.88
2023-01-04T15:28:16.382Z,18.13
2023-01-04T15:33:38.529Z,19.60
2023-01-04T15:39:00.382Z,21.65
2023-01-04T15:44:22.207Z,18.88
2023-01-04T15:49:44.084Z,17.13
2023-01-04T15:55:06.262Z,21.88
2023-01-04T16:00:28.104Z,20.92
2023-01-04T16:05:50.003Z,24.58
2023-01-04T16:11:20.725Z,21.08
2023-01-04T16:16:42.621Z,24.13
2023-01-04T16:22:04.544Z,20.63
2023-01-04T16:27:31.138Z,18.92
2023-01-04T16:32:55.041Z,17.42
2023-01-04T16:38:16.879Z,19.42
2023-01-04T16:43:49.990Z,19.95
2023-01-04T16:49:14.759Z,19.85
2023-01-04T16:54:36.834Z,14.95
2023-01-04T16:59:58.702Z,16.77
2023-01-04T17:05:20.609Z,12.63
2023-01-04T17:10:42.600Z,12.98
2023-01-04T17:16:05.620Z,12.32
2023-01-04T17:21:34.301Z,11.15
2023-01-04T17:26:56.738Z,12.98
2023-01-04T17:32:18.599Z,10.45
2023-01-04T17:37:40.422Z,12.30
2023-01-04T17:43:02.978Z,11.32
2023-01-04T17:48:24.875Z,11.93
2023-01-04T17:53:48.440Z,12.90
2023-01-04T17:59:11.024Z,8.90
2023-01-04T18:04:32.921Z,12.50
2023-01-04T18:09:55.798Z,13.32
2023-01-04T18:15:17.767Z,11.30
2023-01-04T18:20:41.018Z,12.15
2023-01-04T18:26:05.493Z,12.60
2023-01-04T18:31:27.442Z,12.82
2023-01-04T18:36:49.409Z,11.43
2023-01-04T18:42:11.391Z,11.07
2023-01-04T18:47:33.572Z,12.38
2023-01-04T18:52:55.421Z,13.63
2023-01-04T18:58:17.312Z,10.63
2023-01-04T19:03:41.717Z,10.98
2023-01-04T19:09:06.793Z,11.32
2023-01-04T19:14:29.085Z,11.10
2023-01-04T19:19:51.611Z,9.48
2023-01-04T19:25:13.407Z,7.47
2023-01-04T19:30:38.595Z,10.32
2023-01-04T19:36:00.551Z,9.63
2023-01-04T19:41:33.078Z,9.70
2023-01-04T19:46:55.855Z,12.63
2023-01-04T19:52:17.743Z,7.95
2023-01-04T19:57:39.720Z,7.68
2023-01-04T20:03:01.685Z,9.38
2023-01-04T20:08:23.650Z,9.13
2023-01-04T20:13:45.531Z,9.43
2023-01-04T20:19:07.397Z,9.50
2023-01-04T20:24:29.268Z,7.57
2023-01-04T20:29:51.308Z,6.53
2023-01-04T20:35:13.129Z,7.45
2023-01-04T20:40:36.804Z,7.80
2023-01-04T20:45:59.895Z,8.10
2023-01-04T20:51:24.635Z,6.88
2023-01-04T20:56:46.453Z,8.18
2023-01-04T21:02:12.290Z,8.40
2023-01-04T21:07:34.276Z,6.37
2023-01-04T21:12:56.153Z,7.28
2023-01-04T21:18:17.970Z,7.82
2023-01-04T21:23:41.749Z,6.88
2023-01-04T21:29:03.894Z,6.63
2023-01-04T21:34:25.747Z,6.10
2023-01-04T21:39:47.565Z,8.18
2023-01-04T21:45:09.955Z,7.30
2023-01-04T21:50:31.786Z,10.18
2023-01-04T21:56:07.760Z,6.88
2023-01-04T22:01:34.515Z,6.70
2023-01-04T22:06:56.900Z,6.15
2023-01-04T22:12:18.798Z,7.75
2023-01-04T22:17:40.687Z,7.80
2023-01-04T22:23:02.522Z,7.90
2023-01-04T22:28:25.164Z,7.00
2023-01-04T22:33:47.030Z,9.07
2023-01-04T22:39:10.143Z,6.22
2023-01-04T22:44:32.023Z,8.10
2023-01-04T22:49:53.869Z,5.32
2023-01-04T22:55:15.760Z,7.75
2023-01-04T23:00:37.648Z,4.72
2023-01-04T23:05:59.673Z,6.78
2023-01-04T23:11:21.627Z,6.78
2023-01-04T23:16:44.552Z,6.75
2023-01-04T23:22:06.616Z,5.25
2023-01-04T23:27:28.751Z,5.47
2023-01-04T23:32:50.652Z,7.22
2023-01-04T23:38:12.518Z,7.05
2023-01-04T23:43:35.401Z,5.53
2023-01-04T23:48:57.201Z,6.32
2023-01-04T23:54:19.607Z,7.35
2023-01-04T23:59:41.451Z,7.22
